sensor_id;sensor_type;location;lat;lon;timestamp;P1;durP1;ratioP1;P2;durP2;ratioP2
13941;SDS011;7043;51.630;7.254;2023-09-19T00:02:18;8.93;;;4.20;;
13941;SDS011;7043;51.630;7.254;2023-09-19T00:04:44;9.37;;;3.70;;
13941;SDS011;7043;51.630;7.254;2023-09-19T00:07:10;6.03;;;3.50;;
13941;SDS011;7043;51.630;7.254;2023-09-19T00:09:36;7.57;;;3.57;;
13941;SDS011;7043;51.630;7.254;2023-09-19T00:12:05;6.37;;;3.60;;
13941;SDS011;7043;51.630;7.254;2023-09-19T00:14:31;8.33;;;3.70;;
13941;SDS011;7043;51.630;7.254;2023-09-19T00:17:02;8.57;;;3.43;;
13941;SDS011;7043;51.630;7.254;2023-09-19T00:19:33;5.53;;;3.10;;
13941;SDS011;7043;51.630;7.254;2023-09-19T00:21:59;8.63;;;3.30;;
13941;SDS011;7043;51.630;7.254;2023-09-19T00:24:25;9.13;;;3.93;;
13941;SDS011;7043;51.630;7.254;2023-09-19T00:26:53;7.63;;;3.33;;
13941;SDS011;7043;51.630;7.254;2023-09-19T00:29:20;9.23;;;3.00;;
13941;SDS011;7043;51.630;7.254;2023-09-19T00:31:48;10.33;;;3.37;;
13941;SDS011;7043;51.630;7.254;2023-09-19T00:34:15;8.47;;;3.10;;
13941;SDS011;7043;51.630;7.254;2023-09-19T00:36:41;10.63;;;3.40;;
13941;SDS011;7043;51.630;7.254;2023-09-19T00:39:08;8.77;;;2.83;;
13941;SDS011;7043;51.630;7.254;2023-09-19T00:41:35;4.43;;;2.47;;
13941;SDS011;7043;51.630;7.254;2023-09-19T00:44:02;6.27;;;2.73;;
13941;SDS011;7043;51.630;7.254;2023-09-19T00:46:29;6.97;;;3.03;;
13941;SDS011;7043;51.630;7.254;2023-09-19T00:48:55;7.43;;;3.00;;
13941;SDS011;7043;51.630;7.254;2023-09-19T00:51:22;9.60;;;3.00;;
13941;SDS011;7043;51.630;7.254;2023-09-19T00:53:50;10.50;;;3.20;;
13941;SDS011;7043;51.630;7.254;2023-09-19T00:56:17;9.57;;;2.87;;
13941;SDS011;7043;51.630;7.254;2023-09-19T00:58:43;12.57;;;2.83;;
13941;SDS011;7043;51.630;7.254;2023-09-19T01:01:09;9.73;;;2.73;;
13941;SDS011;7043;51.630;7.254;2023-09-19T01:03:36;7.97;;;2.80;;
13941;SDS011;7043;51.630;7.254;2023-09-19T01:06:02;8.63;;;3.43;;
13941;SDS011;7043;51.630;7.254;2023-09-19T01:08:28;9.47;;;3.00;;
13941;SDS011;7043;51.630;7.254;2023-09-19T01:11:12;7.77;;;2.83;;
13941;SDS011;7043;51.630;7.254;2023-09-19T01:16:11;8.47;;;3.10;;
13941;SDS011;7043;51.630;7.254;2023-09-19T01:18:47;8.27;;;2.73;;
13941;SDS011;7043;51.630;7.254;2023-09-19T01:21:28;11.67;;;3.30;;
13941;SDS011;7043;51.630;7.254;2023-09-19T01:31:59;13.40;;;3.17;;
13941;SDS011;7043;51.630;7.254;2023-09-19T01:34:26;11.57;;;3.60;;
13941;SDS011;7043;51.630;7.254;2023-09-19T01:36:52;14.20;;;3.73;;
13941;SDS011;7043;51.630;7.254;2023-09-19T01:39:18;10.97;;;3.13;;
13941;SDS011;7043;51.630;7.254;2023-09-19T01:47:19;7.93;;;3.27;;
13941;SDS011;7043;51.630;7.254;2023-09-19T01:52:36;11.37;;;3.20;;
13941;SDS011;7043;51.630;7.254;2023-09-19T01:55:05;10.07;;;3.30;;
13941;SDS011;7043;51.630;7.254;2023-09-19T01:57:43;9.17;;;3.10;;
13941;SDS011;7043;51.630;7.254;2023-09-19T02:00:10;10.83;;;3.50;;
13941;SDS011;7043;51.630;7.254;2023-09-19T02:02:38;11.53;;;3.43;;
13941;SDS011;7043;51.630;7.254;2023-09-19T02:05:05;13.37;;;3.17;;
13941;SDS011;7043;51.630;7.254;2023-09-19T02:07:32;12.53;;;3.17;;
13941;SDS011;7043;51.630;7.254;2023-09-19T02:09:58;8.73;;;3.03;;
13941;SDS011;7043;51.630;7.254;2023-09-19T02:12:30;7.07;;;2.73;;
13941;SDS011;7043;51.630;7.254;2023-09-19T02:14:57;10.30;;;3.07;;
13941;SDS011;7043;51.630;7.254;2023-09-19T02:17:24;11.03;;;3.40;;
13941;SDS011;7043;51.630;7.254;2023-09-19T02:19:51;10.50;;;3.47;;
13941;SDS011;7043;51.630;7.254;2023-09-19T02:22:17;7.93;;;2.97;;
13941;SDS011;7043;51.630;7.254;2023-09-19T02:24:43;8.63;;;2.87;;
13941;SDS011;7043;51.630;7.254;2023-09-19T02:27:11;9.47;;;3.20;;
13941;SDS011;7043;51.630;7.254;2023-09-19T02:29:39;12.77;;;3.17;;
13941;SDS011;7043;51.630;7.254;2023-09-19T02:32:05;8.73;;;2.90;;
13941;SDS011;7043;51.630;7.254;2023-09-19T02:34:32;10.00;;;3.10;;
13941;SDS011;7043;51.630;7.254;2023-09-19T02:37:01;10.87;;;2.70;;
13941;SDS011;7043;51.630;7.254;2023-09-19T02:39:30;11.07;;;2.83;;
13941;SDS011;7043;51.630;7.254;2023-09-19T02:41:55;11.13;;;2.80;;
13941;SDS011;7043;51.630;7.254;2023-09-19T02:44:22;9.03;;;2.53;;
13941;SDS011;7043;51.630;7.254;2023-09-19T02:46:48;8.93;;;3.07;;
13941;SDS011;7043;51.630;7.254;2023-09-19T02:49:14;11.40;;;2.87;;
13941;SDS011;7043;51.630;7.254;2023-09-19T02:51:42;11.73;;;2.87;;
13941;SDS011;7043;51.630;7.254;2023-09-19T02:54:08;7.07;;;2.50;;
13941;SDS011;7043;51.630;7.254;2023-09-19T02:56:34;9.80;;;3.17;;
13941;SDS011;7043;51.630;7.254;2023-09-19T02:59:00;9.33;;;2.40;;
13941;SDS011;7043;51.630;7.254;2023-09-19T03:01:26;7.07;;;2.53;;
13941;SDS011;7043;51.630;7.254;2023-09-19T03:03:56;12.27;;;3.07;;
13941;SDS011;7043;51.630;7.254;2023-09-19T03:06:22;10.10;;;2.93;;
13941;SDS011;7043;51.630;7.254;2023-09-19T03:08:48;8.40;;;3.20;;
13941;SDS011;7043;51.630;7.254;2023-09-19T03:11:16;11.87;;;3.20;;
13941;SDS011;7043;51.630;7.254;2023-09-19T03:13:46;9.37;;;2.80;;
13941;SDS011;7043;51.630;7.254;2023-09-19T03:16:12;11.13;;;2.90;;
13941;SDS011;7043;51.630;7.254;2023-09-19T03:18:40;7.13;;;2.90;;
13941;SDS011;7043;51.630;7.254;2023-09-19T03:21:06;10.97;;;3.17;;
13941;SDS011;7043;51.630;7.254;2023-09-19T03:23:31;9.53;;;3.00;;
13941;SDS011;7043;51.630;7.254;2023-09-19T03:25:58;10.73;;;3.00;;
13941;SDS011;7043;51.630;7.254;2023-09-19T03:28:24;15.43;;;2.90;;
13941;SDS011;7043;51.630;7.254;2023-09-19T03:30:59;10.17;;;3.13;;
13941;SDS011;7043;51.630;7.254;2023-09-19T03:33:26;10.93;;;2.50;;
13941;SDS011;7043;51.630;7.254;2023-09-19T03:35:52;7.17;;;2.37;;
13941;SDS011;7043;51.630;7.254;2023-09-19T03:38:18;10.60;;;3.23;;
13941;SDS011;7043;51.630;7.254;2023-09-19T03:40:44;9.70;;;3.27;;
13941;SDS011;7043;51.630;7.254;2023-09-19T03:43:10;10.80;;;2.93;;
13941;SDS011;7043;51.630;7.254;2023-09-19T03:45:36;7.80;;;2.30;;
13941;SDS011;7043;51.630;7.254;2023-09-19T03:48:07;9.93;;;3.03;;
13941;SDS011;7043;51.630;7.254;2023-09-19T03:50:33;11.47;;;3.37;;
13941;SDS011;7043;51.630;7.254;2023-09-19T03:52:59;8.50;;;2.73;;
13941;SDS011;7043;51.630;7.254;2023-09-19T03:55:25;9.67;;;2.97;;
13941;SDS011;7043;51.630;7.254;2023-09-19T03:57:52;9.73;;;2.70;;
13941;SDS011;7043;51.630;7.254;2023-09-19T04:00:18;9.87;;;2.83;;
13941;SDS011;7043;51.630;7.254;2023-09-19T04:02:47;9.57;;;2.70;;
13941;SDS011;7043;51.630;7.254;2023-09-19T04:05:13;8.43;;;2.87;;
13941;SDS011;7043;51.630;7.254;2023-09-19T04:07:39;9.07;;;2.83;;
13941;SDS011;7043;51.630;7.254;2023-09-19T04:10:05;9.97;;;2.77;;
13941;SDS011;7043;51.630;7.254;2023-09-19T04:12:33;9.23;;;2.87;;
13941;SDS011;7043;51.630;7.254;2023-09-19T04:14:59;12.17;;;3.17;;
13941;SDS011;7043;51.630;7.254;2023-09-19T04:17:25;10.07;;;3.20;;
13941;SDS011;7043;51.630;7.254;2023-09-19T04:19:51;10.20;;;2.97;;
13941;SDS011;7043;51.630;7.254;2023-09-19T04:22:18;10.90;;;3.10;;
13941;SDS011;7043;51.630;7.254;2023-09-19T04:24:44;9.20;;;2.80;;
13941;SDS011;7043;51.630;7.254;2023-09-19T04:27:10;8.73;;;2.70;;
13941;SDS011;7043;51.630;7.254;2023-09-19T04:29:39;10.03;;;3.00;;
13941;SDS011;7043;51.630;7.254;2023-09-19T04:32:06;11.50;;;3.20;;
13941;SDS011;7043;51.630;7.254;2023-09-19T04:34:32;11.37;;;2.90;;
13941;SDS011;7043;51.630;7.254;2023-09-19T04:36:59;8.43;;;2.77;;
13941;SDS011;7043;51.630;7.254;2023-09-19T04:39:26;10.30;;;3.20;;
13941;SDS011;7043;51.630;7.254;2023-09-19T04:41:52;11.13;;;3.10;;
13941;SDS011;7043;51.630;7.254;2023-09-19T04:44:18;10.97;;;3.47;;
13941;SDS011;7043;51.630;7.254;2023-09-19T04:46:44;9.37;;;3.23;;
13941;SDS011;7043;51.630;7.254;2023-09-19T04:49:13;8.03;;;2.97;;
13941;SDS011;7043;51.630;7.254;2023-09-19T04:51:39;10.70;;;3.10;;
13941;SDS011;7043;51.630;7.254;2023-09-19T04:54:05;10.00;;;3.07;;
13941;SDS011;7043;51.630;7.254;2023-09-19T04:56:31;9.70;;;3.20;;
13941;SDS011;7043;51.630;7.254;2023-09-19T04:58:59;9.60;;;3.57;;
13941;SDS011;7043;51.630;7.254;2023-09-19T05:01:25;9.63;;;3.43;;
13941;SDS011;7043;51.630;7.254;2023-09-19T05:03:52;8.83;;;2.97;;
13941;SDS011;7043;51.630;7.254;2023-09-19T05:06:21;7.57;;;2.80;;
13941;SDS011;7043;51.630;7.254;2023-09-19T05:08:47;10.00;;;3.27;;
13941;SDS011;7043;51.630;7.254;2023-09-19T05:11:20;12.53;;;3.70;;
13941;SDS011;7043;51.630;7.254;2023-09-19T05:13:48;7.73;;;2.90;;
13941;SDS011;7043;51.630;7.254;2023-09-19T05:16:15;9.27;;;3.00;;
13941;SDS011;7043;51.630;7.254;2023-09-19T05:18:41;10.17;;;2.90;;
13941;SDS011;7043;51.630;7.254;2023-09-19T05:21:07;8.73;;;3.03;;
13941;SDS011;7043;51.630;7.254;2023-09-19T05:23:33;9.03;;;2.80;;
13941;SDS011;7043;51.630;7.254;2023-09-19T05:25:59;9.30;;;2.60;;
13941;SDS011;7043;51.630;7.254;2023-09-19T05:28:26;10.00;;;2.80;;
13941;SDS011;7043;51.630;7.254;2023-09-19T05:30:52;8.23;;;2.50;;
13941;SDS011;7043;51.630;7.254;2023-09-19T05:33:19;9.17;;;3.20;;
13941;SDS011;7043;51.630;7.254;2023-09-19T05:35:45;10.47;;;2.80;;
13941;SDS011;7043;51.630;7.254;2023-09-19T05:38:13;10.10;;;2.97;;
13941;SDS011;7043;51.630;7.254;2023-09-19T05:40:44;8.07;;;2.83;;
13941;SDS011;7043;51.630;7.254;2023-09-19T05:43:10;10.47;;;2.83;;
13941;SDS011;7043;51.630;7.254;2023-09-19T05:45:36;8.03;;;3.07;;
13941;SDS011;7043;51.630;7.254;2023-09-19T05:48:12;10.47;;;3.23;;
13941;SDS011;7043;51.630;7.254;2023-09-19T05:50:38;14.17;;;3.63;;
13941;SDS011;7043;51.630;7.254;2023-09-19T05:53:05;9.60;;;2.93;;
13941;SDS011;7043;51.630;7.254;2023-09-19T05:55:31;8.27;;;2.90;;
13941;SDS011;7043;51.630;7.254;2023-09-19T05:57:57;9.47;;;3.10;;
13941;SDS011;7043;51.630;7.254;2023-09-19T06:00:24;10.10;;;2.97;;
13941;SDS011;7043;51.630;7.254;2023-09-19T06:02:52;8.67;;;2.83;;
13941;SDS011;7043;51.630;7.254;2023-09-19T06:05:19;9.80;;;2.90;;
13941;SDS011;7043;51.630;7.254;2023-09-19T06:07:45;10.03;;;3.37;;
13941;SDS011;7043;51.630;7.254;2023-09-19T06:10:11;10.63;;;3.00;;
13941;SDS011;7043;51.630;7.254;2023-09-19T06:12:40;9.70;;;3.20;;
13941;SDS011;7043;51.630;7.254;2023-09-19T06:15:10;12.03;;;3.23;;
13941;SDS011;7043;51.630;7.254;2023-09-19T06:17:40;17.23;;;3.93;;
13941;SDS011;7043;51.630;7.254;2023-09-19T06:20:06;11.10;;;3.47;;
13941;SDS011;7043;51.630;7.254;2023-09-19T06:22:40;9.97;;;2.90;;
13941;SDS011;7043;51.630;7.254;2023-09-19T06:25:06;8.93;;;3.10;;
13941;SDS011;7043;51.630;7.254;2023-09-19T06:27:32;9.93;;;3.53;;
13941;SDS011;7043;51.630;7.254;2023-09-19T06:30:01;8.57;;;2.70;;
13941;SDS011;7043;51.630;7.254;2023-09-19T06:32:28;9.97;;;2.70;;
13941;SDS011;7043;51.630;7.254;2023-09-19T06:34:54;10.90;;;2.73;;
13941;SDS011;7043;51.630;7.254;2023-09-19T06:37:20;10.83;;;3.07;;
13941;SDS011;7043;51.630;7.254;2023-09-19T06:39:47;9.03;;;2.83;;
13941;SDS011;7043;51.630;7.254;2023-09-19T06:42:14;9.70;;;2.97;;
13941;SDS011;7043;51.630;7.254;2023-09-19T06:44:42;8.07;;;3.00;;
13941;SDS011;7043;51.630;7.254;2023-09-19T06:47:08;9.97;;;2.70;;
13941;SDS011;7043;51.630;7.254;2023-09-19T06:49:35;9.00;;;3.27;;
13941;SDS011;7043;51.630;7.254;2023-09-19T06:52:01;7.67;;;2.97;;
13941;SDS011;7043;51.630;7.254;2023-09-19T06:54:27;8.87;;;3.07;;
13941;SDS011;7043;51.630;7.254;2023-09-19T06:56:56;8.17;;;2.60;;
13941;SDS011;7043;51.630;7.254;2023-09-19T06:59:25;9.73;;;3.20;;
13941;SDS011;7043;51.630;7.254;2023-09-19T07:01:51;9.20;;;2.60;;
13941;SDS011;7043;51.630;7.254;2023-09-19T07:04:17;10.30;;;2.83;;
13941;SDS011;7043;51.630;7.254;2023-09-19T07:06:50;8.30;;;2.87;;
13941;SDS011;7043;51.630;7.254;2023-09-19T07:09:16;10.33;;;2.90;;
13941;SDS011;7043;51.630;7.254;2023-09-19T07:11:44;10.53;;;2.63;;
13941;SDS011;7043;51.630;7.254;2023-09-19T07:14:10;7.43;;;2.73;;
13941;SDS011;7043;51.630;7.254;2023-09-19T07:16:37;9.60;;;3.00;;
13941;SDS011;7043;51.630;7.254;2023-09-19T07:19:04;9.50;;;3.73;;
13941;SDS011;7043;51.630;7.254;2023-09-19T07:21:30;8.77;;;3.27;;
13941;SDS011;7043;51.630;7.254;2023-09-19T07:23:59;9.73;;;3.10;;
13941;SDS011;7043;51.630;7.254;2023-09-19T07:26:29;8.90;;;2.70;;
13941;SDS011;7043;51.630;7.254;2023-09-19T07:28:56;6.77;;;2.63;;
13941;SDS011;7043;51.630;7.254;2023-09-19T07:31:22;8.90;;;2.83;;
13941;SDS011;7043;51.630;7.254;2023-09-19T07:33:50;10.37;;;3.07;;
13941;SDS011;7043;51.630;7.254;2023-09-19T07:36:16;8.17;;;2.93;;
13941;SDS011;7043;51.630;7.254;2023-09-19T07:38:42;8.67;;;2.63;;
13941;SDS011;7043;51.630;7.254;2023-09-19T07:41:08;10.20;;;2.90;;
13941;SDS011;7043;51.630;7.254;2023-09-19T07:43:37;10.17;;;2.67;;
13941;SDS011;7043;51.630;7.254;2023-09-19T07:46:06;9.13;;;2.93;;
13941;SDS011;7043;51.630;7.254;2023-09-19T07:48:34;11.20;;;2.73;;
13941;SDS011;7043;51.630;7.254;2023-09-19T07:51:07;12.93;;;2.77;;
13941;SDS011;7043;51.630;7.254;2023-09-19T07:53:34;7.00;;;2.37;;
13941;SDS011;7043;51.630;7.254;2023-09-19T07:56:04;9.60;;;2.83;;
13941;SDS011;7043;51.630;7.254;2023-09-19T07:58:30;8.77;;;3.03;;
13941;SDS011;7043;51.630;7.254;2023-09-19T08:00:56;9.63;;;2.63;;
13941;SDS011;7043;51.630;7.254;2023-09-19T08:03:22;9.47;;;3.03;;
13941;SDS011;7043;51.630;7.254;2023-09-19T08:05:48;9.70;;;2.67;;
13941;SDS011;7043;51.630;7.254;2023-09-19T08:08:14;9.17;;;3.07;;
13941;SDS011;7043;51.630;7.254;2023-09-19T08:10:40;13.17;;;2.83;;
13941;SDS011;7043;51.630;7.254;2023-09-19T08:13:08;8.50;;;2.87;;
13941;SDS011;7043;51.630;7.254;2023-09-19T08:15:42;11.33;;;2.87;;
13941;SDS011;7043;51.630;7.254;2023-09-19T08:18:11;10.97;;;2.93;;
13941;SDS011;7043;51.630;7.254;2023-09-19T08:20:37;9.63;;;2.90;;
13941;SDS011;7043;51.630;7.254;2023-09-19T08:23:03;9.23;;;2.90;;
13941;SDS011;7043;51.630;7.254;2023-09-19T08:25:29;11.63;;;3.87;;
13941;SDS011;7043;51.630;7.254;2023-09-19T08:27:55;8.40;;;3.23;;
13941;SDS011;7043;51.630;7.254;2023-09-19T08:30:23;11.87;;;2.90;;
13941;SDS011;7043;51.630;7.254;2023-09-19T08:32:50;9.97;;;3.13;;
13941;SDS011;7043;51.630;7.254;2023-09-19T08:35:16;9.70;;;2.73;;
13941;SDS011;7043;51.630;7.254;2023-09-19T08:37:42;8.10;;;2.70;;
13941;SDS011;7043;51.630;7.254;2023-09-19T08:40:10;7.97;;;3.20;;
13941;SDS011;7043;51.630;7.254;2023-09-19T08:42:47;10.03;;;3.00;;
13941;SDS011;7043;51.630;7.254;2023-09-19T08:45:14;9.90;;;3.20;;
13941;SDS011;7043;51.630;7.254;2023-09-19T08:47:44;9.63;;;2.67;;
13941;SDS011;7043;51.630;7.254;2023-09-19T08:50:15;11.97;;;2.90;;
13941;SDS011;7043;51.630;7.254;2023-09-19T08:52:44;9.53;;;3.07;;
13941;SDS011;7043;51.630;7.254;2023-09-19T08:55:12;11.18;;;3.42;;
13941;SDS011;7043;51.630;7.254;2023-09-19T08:57:45;9.20;;;2.53;;
13941;SDS011;7043;51.630;7.254;2023-09-19T09:00:14;11.40;;;3.53;;
13941;SDS011;7043;51.630;7.254;2023-09-19T09:02:42;8.23;;;2.77;;
13941;SDS011;7043;51.630;7.254;2023-09-19T09:05:09;7.03;;;2.63;;
13941;SDS011;7043;51.630;7.254;2023-09-19T09:07:38;10.13;;;2.60;;
13941;SDS011;7043;51.630;7.254;2023-09-19T09:10:04;7.53;;;2.57;;
13941;SDS011;7043;51.630;7.254;2023-09-19T09:12:30;10.10;;;3.03;;
13941;SDS011;7043;51.630;7.254;2023-09-19T09:14:56;10.97;;;3.23;;
13941;SDS011;7043;51.630;7.254;2023-09-19T09:17:23;9.40;;;3.00;;
13941;SDS011;7043;51.630;7.254;2023-09-19T09:19:49;8.30;;;2.40;;
13941;SDS011;7043;51.630;7.254;2023-09-19T09:22:17;7.97;;;2.47;;
13941;SDS011;7043;51.630;7.254;2023-09-19T09:24:53;7.30;;;2.47;;
13941;SDS011;7043;51.630;7.254;2023-09-19T09:27:19;10.27;;;2.40;;
13941;SDS011;7043;51.630;7.254;2023-09-19T09:29:49;8.02;;;2.50;;
13941;SDS011;7043;51.630;7.254;2023-09-19T09:32:19;9.10;;;2.30;;
13941;SDS011;7043;51.630;7.254;2023-09-19T09:34:48;12.90;;;3.05;;
13941;SDS011;7043;51.630;7.254;2023-09-19T09:37:15;11.03;;;2.43;;
13941;SDS011;7043;51.630;7.254;2023-09-19T09:39:52;8.98;;;2.70;;
13941;SDS011;7043;51.630;7.254;2023-09-19T09:48:02;10.73;;;2.70;;
13941;SDS011;7043;51.630;7.254;2023-09-19T09:50:45;9.00;;;2.53;;
13941;SDS011;7043;51.630;7.254;2023-09-19T09:53:22;8.63;;;2.70;;
13941;SDS011;7043;51.630;7.254;2023-09-19T09:58:34;6.00;;;2.50;;
13941;SDS011;7043;51.630;7.254;2023-09-19T10:01:01;10.63;;;3.08;;
13941;SDS011;7043;51.630;7.254;2023-09-19T10:03:34;10.15;;;2.63;;
13941;SDS011;7043;51.630;7.254;2023-09-19T10:06:04;9.65;;;2.80;;
13941;SDS011;7043;51.630;7.254;2023-09-19T10:08:57;11.55;;;3.03;;
13941;SDS011;7043;51.630;7.254;2023-09-19T10:11:29;9.20;;;2.30;;
13941;SDS011;7043;51.630;7.254;2023-09-19T10:13:55;8.65;;;2.42;;
13941;SDS011;7043;51.630;7.254;2023-09-19T10:16:21;9.93;;;2.95;;
13941;SDS011;7043;51.630;7.254;2023-09-19T10:18:49;9.07;;;2.80;;
13941;SDS011;7043;51.630;7.254;2023-09-19T10:21:19;7.53;;;2.85;;
13941;SDS011;7043;51.630;7.254;2023-09-19T10:23:47;11.40;;;2.80;;
13941;SDS011;7043;51.630;7.254;2023-09-19T10:26:17;10.45;;;2.53;;
13941;SDS011;7043;51.630;7.254;2023-09-19T10:28:43;9.68;;;2.75;;
13941;SDS011;7043;51.630;7.254;2023-09-19T10:31:13;7.55;;;2.58;;
13941;SDS011;7043;51.630;7.254;2023-09-19T10:33:39;6.68;;;2.67;;
13941;SDS011;7043;51.630;7.254;2023-09-19T10:36:06;8.18;;;2.40;;
13941;SDS011;7043;51.630;7.254;2023-09-19T10:38:33;5.43;;;2.30;;
13941;SDS011;7043;51.630;7.254;2023-09-19T10:41:01;9.80;;;2.58;;
13941;SDS011;7043;51.630;7.254;2023-09-19T10:43:31;5.75;;;2.15;;
13941;SDS011;7043;51.630;7.254;2023-09-19T10:46:00;7.93;;;2.22;;
13941;SDS011;7043;51.630;7.254;2023-09-19T10:48:30;8.15;;;2.25;;
13941;SDS011;7043;51.630;7.254;2023-09-19T10:50:58;6.90;;;2.40;;
13941;SDS011;7043;51.630;7.254;2023-09-19T10:53:29;8.00;;;2.22;;
13941;SDS011;7043;51.630;7.254;2023-09-19T10:55:59;7.63;;;2.58;;
13941;SDS011;7043;51.630;7.254;2023-09-19T10:58:31;6.85;;;2.45;;
13941;SDS011;7043;51.630;7.254;2023-09-19T11:00:59;8.27;;;2.47;;
13941;SDS011;7043;51.630;7.254;2023-09-19T11:03:37;8.52;;;2.60;;
13941;SDS011;7043;51.630;7.254;2023-09-19T11:06:26;7.80;;;2.30;;
13941;SDS011;7043;51.630;7.254;2023-09-19T11:08:52;10.82;;;2.78;;
13941;SDS011;7043;51.630;7.254;2023-09-19T11:11:41;7.40;;;2.75;;
13941;SDS011;7043;51.630;7.254;2023-09-19T11:14:28;6.35;;;2.22;;
13941;SDS011;7043;51.630;7.254;2023-09-19T11:22:18;5.70;;;2.47;;
13941;SDS011;7043;51.630;7.254;2023-09-19T11:24:47;9.35;;;2.33;;
13941;SDS011;7043;51.630;7.254;2023-09-19T11:27:15;7.40;;;2.08;;
13941;SDS011;7043;51.630;7.254;2023-09-19T11:29:43;6.28;;;2.35;;
13941;SDS011;7043;51.630;7.254;2023-09-19T11:32:09;4.97;;;2.35;;
13941;SDS011;7043;51.630;7.254;2023-09-19T11:40:09;8.20;;;2.78;;
13941;SDS011;7043;51.630;7.254;2023-09-19T11:42:41;6.82;;;2.08;;
13941;SDS011;7043;51.630;7.254;2023-09-19T11:45:42;6.97;;;2.20;;
13941;SDS011;7043;51.630;7.254;2023-09-19T11:47:55;8.32;;;2.50;;
13941;SDS011;7043;51.630;7.254;2023-09-19T11:50:21;8.45;;;2.30;;
13941;SDS011;7043;51.630;7.254;2023-09-19T11:52:50;7.82;;;2.30;;
13941;SDS011;7043;51.630;7.254;2023-09-19T11:55:17;6.28;;;2.20;;
13941;SDS011;7043;51.630;7.254;2023-09-19T11:57:46;5.72;;;2.38;;
13941;SDS011;7043;51.630;7.254;2023-09-19T12:00:18;8.35;;;2.80;;
13941;SDS011;7043;51.630;7.254;2023-09-19T12:02:46;6.13;;;2.45;;
13941;SDS011;7043;51.630;7.254;2023-09-19T12:05:13;5.05;;;2.20;;
13941;SDS011;7043;51.630;7.254;2023-09-19T12:07:43;7.13;;;2.53;;
13941;SDS011;7043;51.630;7.254;2023-09-19T12:10:12;5.75;;;2.10;;
13941;SDS011;7043;51.630;7.254;2023-09-19T12:12:45;7.35;;;2.72;;
13941;SDS011;7043;51.630;7.254;2023-09-19T12:15:13;6.05;;;2.05;;
13941;SDS011;7043;51.630;7.254;2023-09-19T12:17:39;6.35;;;2.50;;
13941;SDS011;7043;51.630;7.254;2023-09-19T12:20:07;7.97;;;2.45;;
13941;SDS011;7043;51.630;7.254;2023-09-19T12:25:08;7.18;;;2.20;;
13941;SDS011;7043;51.630;7.254;2023-09-19T12:27:45;9.00;;;2.90;;
13941;SDS011;7043;51.630;7.254;2023-09-19T12:30:12;5.85;;;2.00;;
13941;SDS011;7043;51.630;7.254;2023-09-19T12:32:43;6.05;;;2.22;;
13941;SDS011;7043;51.630;7.254;2023-09-19T12:35:09;5.60;;;2.05;;
13941;SDS011;7043;51.630;7.254;2023-09-19T12:37:43;5.18;;;2.17;;
13941;SDS011;7043;51.630;7.254;2023-09-19T12:40:13;6.63;;;2.47;;
13941;SDS011;7043;51.630;7.254;2023-09-19T12:42:44;4.95;;;2.13;;
13941;SDS011;7043;51.630;7.254;2023-09-19T12:45:10;7.10;;;2.20;;
13941;SDS011;7043;51.630;7.254;2023-09-19T12:47:38;6.07;;;2.40;;
13941;SDS011;7043;51.630;7.254;2023-09-19T12:50:11;5.75;;;2.40;;
13941;SDS011;7043;51.630;7.254;2023-09-19T12:52:50;6.18;;;1.95;;
13941;SDS011;7043;51.630;7.254;2023-09-19T12:55:23;7.03;;;2.08;;
13941;SDS011;7043;51.630;7.254;2023-09-19T12:57:56;7.00;;;2.40;;
13941;SDS011;7043;51.630;7.254;2023-09-19T13:00:31;9.70;;;2.20;;
13941;SDS011;7043;51.630;7.254;2023-09-19T13:05:54;5.05;;;1.90;;
13941;SDS011;7043;51.630;7.254;2023-09-19T13:08:21;6.53;;;2.55;;
13941;SDS011;7043;51.630;7.254;2023-09-19T13:13:34;4.72;;;2.20;;
13941;SDS011;7043;51.630;7.254;2023-09-19T13:16:01;5.68;;;1.60;;
13941;SDS011;7043;51.630;7.254;2023-09-19T13:18:28;4.88;;;1.73;;
13941;SDS011;7043;51.630;7.254;2023-09-19T13:21:07;9.13;;;2.00;;
13941;SDS011;7043;51.630;7.254;2023-09-19T13:23:37;4.55;;;1.70;;
13941;SDS011;7043;51.630;7.254;2023-09-19T13:26:03;5.32;;;1.88;;
13941;SDS011;7043;51.630;7.254;2023-09-19T13:28:33;6.15;;;2.20;;
13941;SDS011;7043;51.630;7.254;2023-09-19T13:30:59;6.63;;;1.95;;
13941;SDS011;7043;51.630;7.254;2023-09-19T13:33:25;7.13;;;1.75;;
13941;SDS011;7043;51.630;7.254;2023-09-19T13:35:51;5.63;;;1.90;;
13941;SDS011;7043;51.630;7.254;2023-09-19T13:38:18;4.43;;;1.90;;
13941;SDS011;7043;51.630;7.254;2023-09-19T13:40:47;5.90;;;1.70;;
13941;SDS011;7043;51.630;7.254;2023-09-19T13:43:14;5.05;;;1.90;;
13941;SDS011;7043;51.630;7.254;2023-09-19T13:45:41;6.18;;;1.55;;
13941;SDS011;7043;51.630;7.254;2023-09-19T13:48:07;4.43;;;1.67;;
13941;SDS011;7043;51.630;7.254;2023-09-19T13:50:36;4.38;;;1.65;;
13941;SDS011;7043;51.630;7.254;2023-09-19T13:53:07;7.95;;;1.98;;
13941;SDS011;7043;51.630;7.254;2023-09-19T13:55:33;6.95;;;1.73;;
13941;SDS011;7043;51.630;7.254;2023-09-19T13:57:59;4.50;;;1.20;;
13941;SDS011;7043;51.630;7.254;2023-09-19T14:00:25;5.50;;;1.77;;
13941;SDS011;7043;51.630;7.254;2023-09-19T14:02:52;5.53;;;1.98;;
13941;SDS011;7043;51.630;7.254;2023-09-19T14:05:18;2.75;;;1.30;;
13941;SDS011;7043;51.630;7.254;2023-09-19T14:07:45;5.97;;;2.00;;
13941;SDS011;7043;51.630;7.254;2023-09-19T14:10:11;5.57;;;1.70;;
13941;SDS011;7043;51.630;7.254;2023-09-19T14:12:38;4.50;;;1.60;;
13941;SDS011;7043;51.630;7.254;2023-09-19T14:15:10;3.60;;;1.42;;
13941;SDS011;7043;51.630;7.254;2023-09-19T14:17:39;4.18;;;1.60;;
13941;SDS011;7043;51.630;7.254;2023-09-19T14:20:12;4.13;;;1.35;;
13941;SDS011;7043;51.630;7.254;2023-09-19T14:22:40;5.10;;;1.55;;
13941;SDS011;7043;51.630;7.254;2023-09-19T14:25:07;4.40;;;1.40;;
13941;SDS011;7043;51.630;7.254;2023-09-19T14:27:34;3.33;;;1.13;;
13941;SDS011;7043;51.630;7.254;2023-09-19T14:30:00;3.72;;;1.38;;
13941;SDS011;7043;51.630;7.254;2023-09-19T14:32:26;2.75;;;1.02;;
13941;SDS011;7043;51.630;7.254;2023-09-19T14:34:52;5.22;;;1.50;;
13941;SDS011;7043;51.630;7.254;2023-09-19T14:37:18;4.18;;;1.15;;
13941;SDS011;7043;51.630;7.254;2023-09-19T14:39:46;3.97;;;1.35;;
13941;SDS011;7043;51.630;7.254;2023-09-19T14:42:12;4.82;;;1.50;;
13941;SDS011;7043;51.630;7.254;2023-09-19T14:44:42;4.40;;;1.48;;
13941;SDS011;7043;51.630;7.254;2023-09-19T14:47:08;5.93;;;1.70;;
13941;SDS011;7043;51.630;7.254;2023-09-19T14:49:38;3.92;;;1.50;;
13941;SDS011;7043;51.630;7.254;2023-09-19T14:52:09;3.83;;;1.40;;
13941;SDS011;7043;51.630;7.254;2023-09-19T14:54:35;4.47;;;1.30;;
13941;SDS011;7043;51.630;7.254;2023-09-19T14:57:06;3.92;;;1.25;;
13941;SDS011;7043;51.630;7.254;2023-09-19T14:59:34;3.03;;;1.17;;
13941;SDS011;7043;51.630;7.254;2023-09-19T15:02:06;2.35;;;0.80;;
13941;SDS011;7043;51.630;7.254;2023-09-19T15:04:32;3.75;;;1.33;;
13941;SDS011;7043;51.630;7.254;2023-09-19T15:06:59;3.10;;;1.20;;
13941;SDS011;7043;51.630;7.254;2023-09-19T15:09:25;5.60;;;1.30;;
13941;SDS011;7043;51.630;7.254;2023-09-19T15:11:52;5.97;;;1.55;;
13941;SDS011;7043;51.630;7.254;2023-09-19T15:14:18;3.92;;;1.30;;
13941;SDS011;7043;51.630;7.254;2023-09-19T15:16:44;5.00;;;1.17;;
13941;SDS011;7043;51.630;7.254;2023-09-19T15:19:10;5.32;;;1.42;;
13941;SDS011;7043;51.630;7.254;2023-09-19T15:21:36;3.83;;;1.13;;
13941;SDS011;7043;51.630;7.254;2023-09-19T15:24:05;5.50;;;1.38;;
13941;SDS011;7043;51.630;7.254;2023-09-19T15:26:35;4.88;;;1.30;;
13941;SDS011;7043;51.630;7.254;2023-09-19T15:29:05;3.65;;;1.33;;
13941;SDS011;7043;51.630;7.254;2023-09-19T15:31:31;2.90;;;1.35;;
13941;SDS011;7043;51.630;7.254;2023-09-19T15:33:57;3.00;;;1.33;;
13941;SDS011;7043;51.630;7.254;2023-09-19T15:36:23;5.30;;;1.13;;
13941;SDS011;7043;51.630;7.254;2023-09-19T15:41:25;3.25;;;1.08;;
13941;SDS011;7043;51.630;7.254;2023-09-19T15:43:52;3.85;;;1.27;;
13941;SDS011;7043;51.630;7.254;2023-09-19T15:46:18;2.90;;;1.10;;
13941;SDS011;7043;51.630;7.254;2023-09-19T15:48:44;3.65;;;1.05;;
13941;SDS011;7043;51.630;7.254;2023-09-19T15:51:11;7.50;;;1.25;;
13941;SDS011;7043;51.630;7.254;2023-09-19T15:53:46;3.60;;;1.33;;